sensor_id;sensor_type;location;lat;lon;timestamp;P1;durP1;ratioP1;P2;durP2;ratioP2
6947;SDS011;3513;47.664;9.162;2022-07-23T00:00:05;25.07;;;19.47;;
6947;SDS011;3513;47.664;9.162;2022-07-23T00:02:31;28.13;;;19.80;;
6947;SDS011;3513;47.664;9.162;2022-07-23T00:04:57;29.20;;;20.57;;
6947;SDS011;3513;47.664;9.162;2022-07-23T00:07:22;31.10;;;19.77;;
6947;SDS011;3513;47.664;9.162;2022-07-23T00:09:48;24.77;;;17.73;;
6947;SDS011;3513;47.664;9.162;2022-07-23T00:12:14;28.30;;;18.40;;
6947;SDS011;3513;47.664;9.162;2022-07-23T00:14:39;24.77;;;16.70;;
6947;SDS011;3513;47.664;9.162;2022-07-23T00:17:05;20.90;;;16.57;;
6947;SDS011;3513;47.664;9.162;2022-07-23T00:19:30;24.73;;;16.97;;
6947;SDS011;3513;47.664;9.162;2022-07-23T00:21:56;35.33;;;21.47;;
6947;SDS011;3513;47.664;9.162;2022-07-23T00:24:22;44.20;;;27.43;;
6947;SDS011;3513;47.664;9.162;2022-07-23T00:26:47;37.93;;;21.87;;
6947;SDS011;3513;47.664;9.162;2022-07-23T00:29:13;36.00;;;21.53;;
6947;SDS011;3513;47.664;9.162;2022-07-23T00:31:38;27.60;;;19.57;;
6947;SDS011;3513;47.664;9.162;2022-07-23T00:34:04;39.40;;;23.47;;
6947;SDS011;3513;47.664;9.162;2022-07-23T00:36:30;40.53;;;22.50;;
6947;SDS011;3513;47.664;9.162;2022-07-23T00:38:58;38.33;;;27.10;;
6947;SDS011;3513;47.664;9.162;2022-07-23T00:41:24;32.50;;;21.17;;
6947;SDS011;3513;47.664;9.162;2022-07-23T00:43:49;25.40;;;16.87;;
6947;SDS011;3513;47.664;9.162;2022-07-23T00:46:21;21.77;;;16.63;;
6947;SDS011;3513;47.664;9.162;2022-07-23T00:48:48;16.67;;;14.83;;
6947;SDS011;3513;47.664;9.162;2022-07-23T00:51:14;40.73;;;17.33;;
6947;SDS011;3513;47.664;9.162;2022-07-23T00:53:41;27.83;;;14.97;;
6947;SDS011;3513;47.664;9.162;2022-07-23T00:56:07;24.27;;;14.43;;
6947;SDS011;3513;47.664;9.162;2022-07-23T00:58:34;18.20;;;13.90;;
6947;SDS011;3513;47.664;9.162;2022-07-23T01:01:01;15.40;;;12.90;;
6947;SDS011;3513;47.664;9.162;2022-07-23T01:03:26;20.80;;;14.80;;
6947;SDS011;3513;47.664;9.162;2022-07-23T01:05:52;19.10;;;14.43;;
6947;SDS011;3513;47.664;9.162;2022-07-23T01:08:19;16.90;;;13.37;;
6947;SDS011;3513;47.664;9.162;2022-07-23T01:10:45;14.77;;;12.20;;
6947;SDS011;3513;47.664;9.162;2022-07-23T01:13:13;17.70;;;13.40;;
6947;SDS011;3513;47.664;9.162;2022-07-23T01:15:38;17.37;;;14.00;;
6947;SDS011;3513;47.664;9.162;2022-07-23T01:18:05;14.33;;;11.57;;
6947;SDS011;3513;47.664;9.162;2022-07-23T01:20:31;14.00;;;10.80;;
6947;SDS011;3513;47.664;9.162;2022-07-23T01:22:57;14.10;;;11.63;;
6947;SDS011;3513;47.664;9.162;2022-07-23T01:25:23;16.60;;;11.30;;
6947;SDS011;3513;47.664;9.162;2022-07-23T01:27:50;18.07;;;12.13;;
6947;SDS011;3513;47.664;9.162;2022-07-23T01:30:19;16.53;;;12.67;;
6947;SDS011;3513;47.664;9.162;2022-07-23T01:32:45;15.63;;;11.63;;
6947;SDS011;3513;47.664;9.162;2022-07-23T01:35:11;13.87;;;10.63;;
6947;SDS011;3513;47.664;9.162;2022-07-23T01:37:37;18.07;;;12.23;;
6947;SDS011;3513;47.664;9.162;2022-07-23T01:40:03;20.27;;;13.43;;
6947;SDS011;3513;47.664;9.162;2022-07-23T01:42:30;22.00;;;13.40;;
6947;SDS011;3513;47.664;9.162;2022-07-23T01:44:56;17.47;;;12.20;;
6947;SDS011;3513;47.664;9.162;2022-07-23T01:47:21;15.50;;;12.33;;
6947;SDS011;3513;47.664;9.162;2022-07-23T01:49:47;20.57;;;14.10;;
6947;SDS011;3513;47.664;9.162;2022-07-23T01:52:13;21.80;;;14.03;;
6947;SDS011;3513;47.664;9.162;2022-07-23T01:54:38;19.67;;;15.13;;
6947;SDS011;3513;47.664;9.162;2022-07-23T01:57:04;15.17;;;13.67;;
6947;SDS011;3513;47.664;9.162;2022-07-23T01:59:31;18.83;;;13.83;;
6947;SDS011;3513;47.664;9.162;2022-07-23T02:01:57;18.60;;;15.60;;
6947;SDS011;3513;47.664;9.162;2022-07-23T02:04:23;21.50;;;16.03;;
6947;SDS011;3513;47.664;9.162;2022-07-23T02:06:49;20.27;;;14.73;;
6947;SDS011;3513;47.664;9.162;2022-07-23T02:09:16;23.67;;;17.70;;
6947;SDS011;3513;47.664;9.162;2022-07-23T02:11:42;23.83;;;16.80;;
6947;SDS011;3513;47.664;9.162;2022-07-23T02:14:08;22.27;;;17.27;;
6947;SDS011;3513;47.664;9.162;2022-07-23T02:16:34;21.23;;;15.40;;
6947;SDS011;3513;47.664;9.162;2022-07-23T02:19:00;23.23;;;16.10;;
6947;SDS011;3513;47.664;9.162;2022-07-23T02:21:25;19.57;;;16.60;;
6947;SDS011;3513;47.664;9.162;2022-07-23T02:23:51;27.43;;;16.37;;
6947;SDS011;3513;47.664;9.162;2022-07-23T02:26:17;23.63;;;15.60;;
6947;SDS011;3513;47.664;9.162;2022-07-23T02:28:42;18.37;;;14.47;;
6947;SDS011;3513;47.664;9.162;2022-07-23T02:31:08;19.03;;;16.13;;
6947;SDS011;3513;47.664;9.162;2022-07-23T02:33:34;23.40;;;15.40;;
6947;SDS011;3513;47.664;9.162;2022-07-23T02:35:59;22.20;;;16.73;;
6947;SDS011;3513;47.664;9.162;2022-07-23T02:38:25;18.77;;;15.73;;
6947;SDS011;3513;47.664;9.162;2022-07-23T02:40:51;25.57;;;16.40;;
6947;SDS011;3513;47.664;9.162;2022-07-23T02:43:16;21.30;;;16.67;;
6947;SDS011;3513;47.664;9.162;2022-07-23T02:45:42;18.63;;;15.10;;
6947;SDS011;3513;47.664;9.162;2022-07-23T02:48:08;21.80;;;16.90;;
6947;SDS011;3513;47.664;9.162;2022-07-23T02:50:34;20.90;;;15.30;;
6947;SDS011;3513;47.664;9.162;2022-07-23T02:52:59;24.57;;;14.30;;
6947;SDS011;3513;47.664;9.162;2022-07-23T02:55:25;16.50;;;13.10;;
6947;SDS011;3513;47.664;9.162;2022-07-23T02:57:51;17.03;;;13.07;;
6947;SDS011;3513;47.664;9.162;2022-07-23T03:00:17;16.83;;;12.20;;
6947;SDS011;3513;47.664;9.162;2022-07-23T03:02:43;16.00;;;12.50;;
6947;SDS011;3513;47.664;9.162;2022-07-23T03:05:09;14.57;;;11.63;;
6947;SDS011;3513;47.664;9.162;2022-07-23T03:07:35;15.97;;;12.20;;
6947;SDS011;3513;47.664;9.162;2022-07-23T03:10:00;15.20;;;12.30;;
6947;SDS011;3513;47.664;9.162;2022-07-23T03:12:26;21.53;;;12.00;;
6947;SDS011;3513;47.664;9.162;2022-07-23T03:14:52;16.30;;;12.20;;
6947;SDS011;3513;47.664;9.162;2022-07-23T03:17:17;19.10;;;13.73;;
6947;SDS011;3513;47.664;9.162;2022-07-23T03:19:43;22.53;;;13.20;;
6947;SDS011;3513;47.664;9.162;2022-07-23T03:22:09;14.50;;;13.00;;
6947;SDS011;3513;47.664;9.162;2022-07-23T03:24:34;16.40;;;13.87;;
6947;SDS011;3513;47.664;9.162;2022-07-23T03:27:22;20.57;;;13.90;;
6947;SDS011;3513;47.664;9.162;2022-07-23T03:29:49;15.53;;;12.30;;
6947;SDS011;3513;47.664;9.162;2022-07-23T03:32:16;16.50;;;13.60;;
6947;SDS011;3513;47.664;9.162;2022-07-23T03:34:41;20.47;;;13.57;;
6947;SDS011;3513;47.664;9.162;2022-07-23T03:37:07;17.80;;;13.23;;
6947;SDS011;3513;47.664;9.162;2022-07-23T03:39:33;17.93;;;14.03;;
6947;SDS011;3513;47.664;9.162;2022-07-23T03:42:00;14.57;;;11.70;;
6947;SDS011;3513;47.664;9.162;2022-07-23T03:44:25;17.87;;;11.70;;
6947;SDS011;3513;47.664;9.162;2022-07-23T03:46:51;15.40;;;11.60;;
6947;SDS011;3513;47.664;9.162;2022-07-23T03:49:17;15.43;;;11.73;;
6947;SDS011;3513;47.664;9.162;2022-07-23T03:51:42;16.23;;;13.10;;
6947;SDS011;3513;47.664;9.162;2022-07-23T03:54:08;22.70;;;12.57;;
6947;SDS011;3513;47.664;9.162;2022-07-23T03:56:34;15.83;;;13.30;;
6947;SDS011;3513;47.664;9.162;2022-07-23T03:59:00;17.60;;;14.70;;
6947;SDS011;3513;47.664;9.162;2022-07-23T04:01:26;17.47;;;13.40;;
6947;SDS011;3513;47.664;9.162;2022-07-23T04:03:51;22.20;;;12.93;;
6947;SDS011;3513;47.664;9.162;2022-07-23T04:06:17;18.13;;;13.40;;
6947;SDS011;3513;47.664;9.162;2022-07-23T04:08:43;22.13;;;14.60;;
6947;SDS011;3513;47.664;9.162;2022-07-23T04:11:08;15.73;;;13.13;;
6947;SDS011;3513;47.664;9.162;2022-07-23T04:13:34;15.40;;;13.27;;
6947;SDS011;3513;47.664;9.162;2022-07-23T04:16:00;16.53;;;12.93;;
6947;SDS011;3513;47.664;9.162;2022-07-23T04:18:26;16.43;;;13.00;;
6947;SDS011;3513;47.664;9.162;2022-07-23T04:20:51;17.27;;;13.70;;
6947;SDS011;3513;47.664;9.162;2022-07-23T04:23:17;16.00;;;13.73;;
6947;SDS011;3513;47.664;9.162;2022-07-23T04:25:42;15.50;;;13.53;;
6947;SDS011;3513;47.664;9.162;2022-07-23T04:28:08;22.30;;;14.47;;
6947;SDS011;3513;47.664;9.162;2022-07-23T04:30:34;17.17;;;14.23;;
6947;SDS011;3513;47.664;9.162;2022-07-23T04:33:00;22.27;;;15.57;;
6947;SDS011;3513;47.664;9.162;2022-07-23T04:35:25;26.27;;;15.00;;
6947;SDS011;3513;47.664;9.162;2022-07-23T04:37:51;25.37;;;14.13;;
6947;SDS011;3513;47.664;9.162;2022-07-23T04:40:17;17.87;;;14.37;;
6947;SDS011;3513;47.664;9.162;2022-07-23T04:42:43;18.03;;;13.30;;
6947;SDS011;3513;47.664;9.162;2022-07-23T04:45:09;15.50;;;12.23;;
6947;SDS011;3513;47.664;9.162;2022-07-23T04:47:34;15.37;;;13.10;;
6947;SDS011;3513;47.664;9.162;2022-07-23T04:50:00;23.57;;;14.10;;
6947;SDS011;3513;47.664;9.162;2022-07-23T04:52:26;18.77;;;15.50;;
6947;SDS011;3513;47.664;9.162;2022-07-23T04:54:51;19.90;;;15.80;;
6947;SDS011;3513;47.664;9.162;2022-07-23T04:57:17;19.27;;;15.47;;
6947;SDS011;3513;47.664;9.162;2022-07-23T04:59:42;18.10;;;14.17;;
6947;SDS011;3513;47.664;9.162;2022-07-23T05:02:08;18.30;;;15.03;;
6947;SDS011;3513;47.664;9.162;2022-07-23T05:04:34;20.23;;;16.53;;
6947;SDS011;3513;47.664;9.162;2022-07-23T05:07:00;22.20;;;15.53;;
6947;SDS011;3513;47.664;9.162;2022-07-23T05:09:25;24.17;;;15.47;;
6947;SDS011;3513;47.664;9.162;2022-07-23T05:11:51;21.07;;;15.33;;
6947;SDS011;3513;47.664;9.162;2022-07-23T05:14:17;21.47;;;13.97;;
6947;SDS011;3513;47.664;9.162;2022-07-23T05:16:42;17.87;;;13.90;;
6947;SDS011;3513;47.664;9.162;2022-07-23T05:19:08;26.33;;;15.30;;
6947;SDS011;3513;47.664;9.162;2022-07-23T05:21:34;21.23;;;15.70;;
6947;SDS011;3513;47.664;9.162;2022-07-23T05:24:00;18.00;;;16.00;;
6947;SDS011;3513;47.664;9.162;2022-07-23T05:26:26;25.13;;;15.93;;
6947;SDS011;3513;47.664;9.162;2022-07-23T05:28:51;24.13;;;15.57;;
6947;SDS011;3513;47.664;9.162;2022-07-23T05:31:17;19.37;;;15.67;;
6947;SDS011;3513;47.664;9.162;2022-07-23T05:33:43;22.27;;;17.40;;
6947;SDS011;3513;47.664;9.162;2022-07-23T05:36:09;21.40;;;18.03;;
6947;SDS011;3513;47.664;9.162;2022-07-23T05:38:35;25.20;;;18.90;;
6947;SDS011;3513;47.664;9.162;2022-07-23T05:41:01;19.03;;;15.70;;
6947;SDS011;3513;47.664;9.162;2022-07-23T05:43:27;23.23;;;17.43;;
6947;SDS011;3513;47.664;9.162;2022-07-23T05:45:53;29.43;;;17.20;;
6947;SDS011;3513;47.664;9.162;2022-07-23T05:48:19;23.73;;;18.80;;
6947;SDS011;3513;47.664;9.162;2022-07-23T05:50:45;20.77;;;17.83;;
6947;SDS011;3513;47.664;9.162;2022-07-23T05:53:11;36.83;;;19.37;;
6947;SDS011;3513;47.664;9.162;2022-07-23T05:55:37;21.83;;;16.83;;
6947;SDS011;3513;47.664;9.162;2022-07-23T05:58:03;26.03;;;17.57;;
6947;SDS011;3513;47.664;9.162;2022-07-23T06:00:29;24.80;;;18.10;;
6947;SDS011;3513;47.664;9.162;2022-07-23T06:02:55;28.27;;;19.60;;
6947;SDS011;3513;47.664;9.162;2022-07-23T06:05:21;33.00;;;19.07;;
6947;SDS011;3513;47.664;9.162;2022-07-23T06:07:47;25.53;;;17.73;;
6947;SDS011;3513;47.664;9.162;2022-07-23T06:10:12;32.57;;;20.80;;
6947;SDS011;3513;47.664;9.162;2022-07-23T06:12:38;20.60;;;16.00;;
6947;SDS011;3513;47.664;9.162;2022-07-23T06:15:04;21.30;;;16.60;;
6947;SDS011;3513;47.664;9.162;2022-07-23T06:17:30;20.73;;;15.57;;
6947;SDS011;3513;47.664;9.162;2022-07-23T06:19:56;26.40;;;15.20;;
6947;SDS011;3513;47.664;9.162;2022-07-23T06:22:22;18.73;;;16.03;;
6947;SDS011;3513;47.664;9.162;2022-07-23T06:24:48;20.30;;;14.00;;
6947;SDS011;3513;47.664;9.162;2022-07-23T06:27:14;22.67;;;15.93;;
6947;SDS011;3513;47.664;9.162;2022-07-23T06:29:40;17.07;;;13.83;;
6947;SDS011;3513;47.664;9.162;2022-07-23T06:32:06;18.40;;;13.43;;
6947;SDS011;3513;47.664;9.162;2022-07-23T06:34:33;17.77;;;14.97;;
6947;SDS011;3513;47.664;9.162;2022-07-23T06:36:58;21.03;;;13.80;;
6947;SDS011;3513;47.664;9.162;2022-07-23T06:39:24;26.33;;;15.63;;
6947;SDS011;3513;47.664;9.162;2022-07-23T06:41:50;20.70;;;16.37;;
6947;SDS011;3513;47.664;9.162;2022-07-23T06:44:16;19.03;;;14.33;;
6947;SDS011;3513;47.664;9.162;2022-07-23T06:46:42;23.07;;;15.07;;
6947;SDS011;3513;47.664;9.162;2022-07-23T06:49:07;24.87;;;16.43;;
6947;SDS011;3513;47.664;9.162;2022-07-23T06:51:33;19.47;;;15.50;;
6947;SDS011;3513;47.664;9.162;2022-07-23T06:53:59;18.63;;;14.67;;
6947;SDS011;3513;47.664;9.162;2022-07-23T06:56:25;21.53;;;15.80;;
6947;SDS011;3513;47.664;9.162;2022-07-23T06:58:50;18.93;;;14.53;;
6947;SDS011;3513;47.664;9.162;2022-07-23T07:01:16;21.27;;;15.90;;
6947;SDS011;3513;47.664;9.162;2022-07-23T07:03:42;17.57;;;15.43;;
6947;SDS011;3513;47.664;9.162;2022-07-23T07:06:08;24.40;;;16.63;;
6947;SDS011;3513;47.664;9.162;2022-07-23T07:08:34;23.13;;;17.97;;
6947;SDS011;3513;47.664;9.162;2022-07-23T07:10:59;20.00;;;16.27;;
6947;SDS011;3513;47.664;9.162;2022-07-23T07:13:25;24.03;;;17.07;;
6947;SDS011;3513;47.664;9.162;2022-07-23T07:15:51;20.97;;;17.70;;
6947;SDS011;3513;47.664;9.162;2022-07-23T07:18:16;28.93;;;17.80;;
6947;SDS011;3513;47.664;9.162;2022-07-23T07:20:42;19.97;;;17.97;;
6947;SDS011;3513;47.664;9.162;2022-07-23T07:23:07;21.53;;;17.20;;
6947;SDS011;3513;47.664;9.162;2022-07-23T07:25:33;25.37;;;18.60;;
6947;SDS011;3513;47.664;9.162;2022-07-23T07:27:59;23.83;;;17.67;;
6947;SDS011;3513;47.664;9.162;2022-07-23T07:30:24;25.83;;;19.20;;
6947;SDS011;3513;47.664;9.162;2022-07-23T07:32:50;26.50;;;18.63;;
6947;SDS011;3513;47.664;9.162;2022-07-23T07:35:16;23.50;;;17.33;;
6947;SDS011;3513;47.664;9.162;2022-07-23T07:37:41;26.73;;;18.63;;
6947;SDS011;3513;47.664;9.162;2022-07-23T07:40:07;24.73;;;18.83;;
6947;SDS011;3513;47.664;9.162;2022-07-23T07:42:33;23.60;;;17.00;;
6947;SDS011;3513;47.664;9.162;2022-07-23T07:44:59;23.20;;;18.33;;
6947;SDS011;3513;47.664;9.162;2022-07-23T07:47:25;16.70;;;13.37;;
6947;SDS011;3513;47.664;9.162;2022-07-23T07:49:50;19.47;;;14.37;;
6947;SDS011;3513;47.664;9.162;2022-07-23T07:52:16;28.87;;;14.20;;
6947;SDS011;3513;47.664;9.162;2022-07-23T07:54:42;28.70;;;16.27;;
6947;SDS011;3513;47.664;9.162;2022-07-23T07:57:07;24.67;;;14.40;;
6947;SDS011;3513;47.664;9.162;2022-07-23T07:59:33;26.20;;;15.90;;
6947;SDS011;3513;47.664;9.162;2022-07-23T08:01:59;22.67;;;13.90;;
6947;SDS011;3513;47.664;9.162;2022-07-23T08:04:25;25.03;;;16.83;;
6947;SDS011;3513;47.664;9.162;2022-07-23T08:06:50;19.00;;;14.63;;
6947;SDS011;3513;47.664;9.162;2022-07-23T08:09:16;18.70;;;14.73;;
6947;SDS011;3513;47.664;9.162;2022-07-23T08:11:41;34.57;;;12.03;;
6947;SDS011;3513;47.664;9.162;2022-07-23T08:14:07;17.50;;;13.03;;
6947;SDS011;3513;47.664;9.162;2022-07-23T08:16:34;20.93;;;14.70;;
6947;SDS011;3513;47.664;9.162;2022-07-23T08:19:00;14.63;;;13.10;;
6947;SDS011;3513;47.664;9.162;2022-07-23T08:21:25;17.20;;;13.13;;
6947;SDS011;3513;47.664;9.162;2022-07-23T08:23:51;15.40;;;13.37;;
6947;SDS011;3513;47.664;9.162;2022-07-23T08:26:17;17.53;;;11.63;;
6947;SDS011;3513;47.664;9.162;2022-07-23T08:28:42;27.80;;;13.77;;
6947;SDS011;3513;47.664;9.162;2022-07-23T08:31:08;17.07;;;13.57;;
6947;SDS011;3513;47.664;9.162;2022-07-23T08:33:35;18.10;;;12.03;;
6947;SDS011;3513;47.664;9.162;2022-07-23T08:36:02;18.07;;;11.40;;
6947;SDS011;3513;47.664;9.162;2022-07-23T08:38:28;15.30;;;12.33;;
6947;SDS011;3513;47.664;9.162;2022-07-23T08:40:54;14.27;;;11.77;;
6947;SDS011;3513;47.664;9.162;2022-07-23T08:43:29;15.97;;;13.10;;
6947;SDS011;3513;47.664;9.162;2022-07-23T08:45:57;16.80;;;13.40;;
6947;SDS011;3513;47.664;9.162;2022-07-23T08:48:25;15.83;;;12.70;;
6947;SDS011;3513;47.664;9.162;2022-07-23T08:50:56;24.17;;;14.13;;
6947;SDS011;3513;47.664;9.162;2022-07-23T08:53:24;15.80;;;12.80;;
6947;SDS011;3513;47.664;9.162;2022-07-23T08:55:52;17.97;;;13.50;;
6947;SDS011;3513;47.664;9.162;2022-07-23T08:58:19;15.83;;;12.33;;
6947;SDS011;3513;47.664;9.162;2022-07-23T09:00:46;26.00;;;14.00;;
6947;SDS011;3513;47.664;9.162;2022-07-23T09:03:31;15.13;;;11.70;;
6947;SDS011;3513;47.664;9.162;2022-07-23T09:05:58;18.80;;;13.17;;
6947;SDS011;3513;47.664;9.162;2022-07-23T09:11:11;17.30;;;13.77;;
6947;SDS011;3513;47.664;9.162;2022-07-23T09:21:27;17.37;;;11.70;;
6947;SDS011;3513;47.664;9.162;2022-07-23T09:24:01;16.57;;;13.37;;
6947;SDS011;3513;47.664;9.162;2022-07-23T09:26:38;15.60;;;12.57;;
6947;SDS011;3513;47.664;9.162;2022-07-23T09:29:10;17.97;;;13.57;;
6947;SDS011;3513;47.664;9.162;2022-07-23T09:34:13;16.60;;;12.70;;
6947;SDS011;3513;47.664;9.162;2022-07-23T09:36:42;17.40;;;13.60;;
6947;SDS011;3513;47.664;9.162;2022-07-23T09:39:08;16.07;;;12.00;;
6947;SDS011;3513;47.664;9.162;2022-07-23T09:41:36;22.20;;;12.60;;
6947;SDS011;3513;47.664;9.162;2022-07-23T09:44:07;15.33;;;11.00;;
6947;SDS011;3513;47.664;9.162;2022-07-23T09:46:37;18.80;;;12.87;;
6947;SDS011;3513;47.664;9.162;2022-07-23T09:49:11;21.00;;;12.90;;
6947;SDS011;3513;47.664;9.162;2022-07-23T09:51:48;25.70;;;12.60;;
6947;SDS011;3513;47.664;9.162;2022-07-23T09:57:17;15.23;;;13.63;;
6947;SDS011;3513;47.664;9.162;2022-07-23T09:59:44;15.20;;;11.37;;
6947;SDS011;3513;47.664;9.162;2022-07-23T10:02:12;14.13;;;12.50;;
6947;SDS011;3513;47.664;9.162;2022-07-23T10:04:39;14.83;;;11.83;;
6947;SDS011;3513;47.664;9.162;2022-07-23T10:07:07;17.80;;;11.60;;
6947;SDS011;3513;47.664;9.162;2022-07-23T10:09:39;16.43;;;12.03;;
6947;SDS011;3513;47.664;9.162;2022-07-23T10:12:10;19.90;;;11.90;;
6947;SDS011;3513;47.664;9.162;2022-07-23T10:14:46;18.17;;;12.73;;
6947;SDS011;3513;47.664;9.162;2022-07-23T10:17:13;12.13;;;10.83;;
6947;SDS011;3513;47.664;9.162;2022-07-23T10:19:39;16.10;;;13.30;;
6947;SDS011;3513;47.664;9.162;2022-07-23T10:22:09;15.73;;;11.03;;
6947;SDS011;3513;47.664;9.162;2022-07-23T10:36:02;18.33;;;12.10;;
6947;SDS011;3513;47.664;9.162;2022-07-23T10:38:53;12.80;;;10.07;;
6947;SDS011;3513;47.664;9.162;2022-07-23T10:41:39;13.57;;;11.20;;
6947;SDS011;3513;47.664;9.162;2022-07-23T10:44:20;15.73;;;12.80;;
6947;SDS011;3513;47.664;9.162;2022-07-23T10:47:03;13.33;;;10.93;;
6947;SDS011;3513;47.664;9.162;2022-07-23T10:49:36;26.57;;;13.00;;
6947;SDS011;3513;47.664;9.162;2022-07-23T10:57:09;15.17;;;12.57;;
6947;SDS011;3513;47.664;9.162;2022-07-23T11:02:30;15.97;;;11.50;;
6947;SDS011;3513;47.664;9.162;2022-07-23T11:05:01;18.03;;;11.77;;
6947;SDS011;3513;47.664;9.162;2022-07-23T11:07:30;17.50;;;12.17;;
6947;SDS011;3513;47.664;9.162;2022-07-23T11:09:55;18.07;;;12.00;;
6947;SDS011;3513;47.664;9.162;2022-07-23T11:17:25;21.33;;;12.53;;
6947;SDS011;3513;47.664;9.162;2022-07-23T11:25:08;14.37;;;11.50;;
6947;SDS011;3513;47.664;9.162;2022-07-23T11:27:54;19.77;;;13.00;;
6947;SDS011;3513;47.664;9.162;2022-07-23T11:35:34;15.43;;;11.90;;
6947;SDS011;3513;47.664;9.162;2022-07-23T11:38:09;16.00;;;11.70;;
6947;SDS011;3513;47.664;9.162;2022-07-23T11:40:43;16.27;;;12.27;;
6947;SDS011;3513;47.664;9.162;2022-07-23T11:43:10;25.33;;;12.70;;
6947;SDS011;3513;47.664;9.162;2022-07-23T11:45:40;19.80;;;13.47;;
6947;SDS011;3513;47.664;9.162;2022-07-23T11:48:09;20.73;;;13.33;;
6947;SDS011;3513;47.664;9.162;2022-07-23T11:50:43;20.07;;;14.40;;
6947;SDS011;3513;47.664;9.162;2022-07-23T11:53:09;18.67;;;14.33;;
6947;SDS011;3513;47.664;9.162;2022-07-23T11:55:34;19.83;;;15.60;;
6947;SDS011;3513;47.664;9.162;2022-07-23T11:58:00;15.70;;;13.83;;
6947;SDS011;3513;47.664;9.162;2022-07-23T12:00:30;18.13;;;13.87;;
6947;SDS011;3513;47.664;9.162;2022-07-23T12:03:00;16.63;;;13.00;;
6947;SDS011;3513;47.664;9.162;2022-07-23T12:05:29;24.57;;;13.60;;
6947;SDS011;3513;47.664;9.162;2022-07-23T12:07:57;28.00;;;14.40;;
6947;SDS011;3513;47.664;9.162;2022-07-23T12:12:51;15.73;;;13.50;;
6947;SDS011;3513;47.664;9.162;2022-07-23T12:15:22;15.77;;;13.23;;
6947;SDS011;3513;47.664;9.162;2022-07-23T12:17:49;15.67;;;12.77;;
6947;SDS011;3513;47.664;9.162;2022-07-23T12:20:17;16.40;;;13.80;;
6947;SDS011;3513;47.664;9.162;2022-07-23T12:22:46;20.90;;;12.93;;
6947;SDS011;3513;47.664;9.162;2022-07-23T12:25:17;20.43;;;12.77;;
6947;SDS011;3513;47.664;9.162;2022-07-23T12:27:45;16.23;;;12.70;;
6947;SDS011;3513;47.664;9.162;2022-07-23T12:30:15;15.87;;;12.53;;
6947;SDS011;3513;47.664;9.162;2022-07-23T12:32:43;13.63;;;12.27;;
6947;SDS011;3513;47.664;9.162;2022-07-23T12:35:10;15.53;;;11.73;;
6947;SDS011;3513;47.664;9.162;2022-07-23T12:37:39;10.87;;;9.77;;
6947;SDS011;3513;47.664;9.162;2022-07-23T12:40:25;17.20;;;11.93;;
6947;SDS011;3513;47.664;9.162;2022-07-23T12:42:57;12.57;;;10.77;;
6947;SDS011;3513;47.664;9.162;2022-07-23T12:45:28;15.20;;;11.77;;
6947;SDS011;3513;47.664;9.162;2022-07-23T12:48:50;13.70;;;11.53;;
6947;SDS011;3513;47.664;9.162;2022-07-23T12:51:05;13.60;;;12.23;;
6947;SDS011;3513;47.664;9.162;2022-07-23T12:53:40;15.13;;;11.83;;
6947;SDS011;3513;47.664;9.162;2022-07-23T13:01:06;17.80;;;13.30;;
6947;SDS011;3513;47.664;9.162;2022-07-23T13:03:33;23.90;;;12.93;;
6947;SDS011;3513;47.664;9.162;2022-07-23T13:06:04;17.13;;;11.37;;
6947;SDS011;3513;47.664;9.162;2022-07-23T13:08:32;15.83;;;11.83;;
6947;SDS011;3513;47.664;9.162;2022-07-23T13:10:59;17.00;;;11.97;;
6947;SDS011;3513;47.664;9.162;2022-07-23T13:13:27;20.80;;;13.03;;
6947;SDS011;3513;47.664;9.162;2022-07-23T13:15:55;15.77;;;12.73;;
6947;SDS011;3513;47.664;9.162;2022-07-23T13:18:22;13.13;;;11.40;;
6947;SDS011;3513;47.664;9.162;2022-07-23T13:20:48;12.97;;;11.53;;
6947;SDS011;3513;47.664;9.162;2022-07-23T13:23:14;13.73;;;11.40;;
6947;SDS011;3513;47.664;9.162;2022-07-23T13:25:40;13.60;;;12.13;;
6947;SDS011;3513;47.664;9.162;2022-07-23T13:28:07;12.50;;;10.70;;
6947;SDS011;3513;47.664;9.162;2022-07-23T13:30:32;15.83;;;11.00;;
6947;SDS011;3513;47.664;9.162;2022-07-23T13:32:59;13.30;;;11.90;;
6947;SDS011;3513;47.664;9.162;2022-07-23T13:35:24;17.07;;;11.90;;
6947;SDS011;3513;47.664;9.162;2022-07-23T13:37:50;20.93;;;12.57;;
6947;SDS011;3513;47.664;9.162;2022-07-23T13:40:16;15.47;;;11.80;;
6947;SDS011;3513;47.664;9.162;2022-07-23T13:42:42;14.40;;;12.20;;
6947;SDS011;3513;47.664;9.162;2022-07-23T13:45:07;13.07;;;11.43;;
6947;SDS011;3513;47.664;9.162;2022-07-23T13:47:33;11.83;;;10.53;;
6947;SDS011;3513;47.664;9.162;2022-07-23T13:49:59;14.93;;;13.33;;
6947;SDS011;3513;47.664;9.162;2022-07-23T13:52:25;12.40;;;10.80;;
6947;SDS011;3513;47.664;9.162;2022-07-23T13:54:51;14.13;;;12.33;;
6947;SDS011;3513;47.664;9.162;2022-07-23T13:57:17;17.70;;;11.03;;
6947;SDS011;3513;47.664;9.162;2022-07-23T13:59:43;13.07;;;11.77;;
6947;SDS011;3513;47.664;9.162;2022-07-23T14:02:08;16.90;;;12.37;;
6947;SDS011;3513;47.664;9.162;2022-07-23T14:04:34;16.30;;;12.17;;
6947;SDS011;3513;47.664;9.162;2022-07-23T14:07:00;11.47;;;10.23;;
6947;SDS011;3513;47.664;9.162;2022-07-23T14:09:26;15.73;;;10.87;;
6947;SDS011;3513;47.664;9.162;2022-07-23T14:11:52;12.67;;;10.90;;
6947;SDS011;3513;47.664;9.162;2022-07-23T14:14:18;12.80;;;11.10;;
6947;SDS011;3513;47.664;9.162;2022-07-23T14:16:44;14.87;;;12.13;;
6947;SDS011;3513;47.664;9.162;2022-07-23T14:19:10;13.57;;;11.90;;
6947;SDS011;3513;47.664;9.162;2022-07-23T14:21:36;14.13;;;10.83;;
6947;SDS011;3513;47.664;9.162;2022-07-23T14:24:02;12.17;;;10.50;;
6947;SDS011;3513;47.664;9.162;2022-07-23T14:26:28;14.10;;;9.83;;
6947;SDS011;3513;47.664;9.162;2022-07-23T14:28:54;14.20;;;11.00;;
6947;SDS011;3513;47.664;9.162;2022-07-23T14:31:20;12.50;;;9.47;;
6947;SDS011;3513;47.664;9.162;2022-07-23T14:33:46;14.00;;;11.13;;
6947;SDS011;3513;47.664;9.162;2022-07-23T14:36:12;12.37;;;11.03;;
6947;SDS011;3513;47.664;9.162;2022-07-23T14:38:38;12.20;;;11.00;;
6947;SDS011;3513;47.664;9.162;2022-07-23T14:41:04;11.60;;;10.40;;
6947;SDS011;3513;47.664;9.162;2022-07-23T14:43:32;18.27;;;11.30;;
6947;SDS011;3513;47.664;9.162;2022-07-23T14:45:57;16.83;;;10.40;;
6947;SDS011;3513;47.664;9.162;2022-07-23T14:48:23;11.47;;;10.00;;
6947;SDS011;3513;47.664;9.162;2022-07-23T14:50:49;10.57;;;9.30;;
6947;SDS011;3513;47.664;9.162;2022-07-23T14:53:14;12.83;;;10.03;;
6947;SDS011;3513;47.664;9.162;2022-07-23T14:55:41;11.37;;;10.20;;
6947;SDS011;3513;47.664;9.162;2022-07-23T14:58:07;12.03;;;8.80;;
6947;SDS011;3513;47.664;9.162;2022-07-23T15:00:33;11.40;;;9.87;;
6947;SDS011;3513;47.664;9.162;2022-07-23T15:02:58;10.50;;;9.10;;
6947;SDS011;3513;47.664;9.162;2022-07-23T15:05:24;12.27;;;9.50;;
6947;SDS011;3513;47.664;9.162;2022-07-23T15:07:49;15.10;;;10.30;;
6947;SDS011;3513;47.664;9.162;2022-07-23T15:10:15;11.53;;;9.97;;
6947;SDS011;3513;47.664;9.162;2022-07-23T15:12:42;10.63;;;9.63;;
6947;SDS011;3513;47.664;9.162;2022-07-23T15:15:07;13.30;;;9.47;;
6947;SDS011;3513;47.664;9.162;2022-07-23T15:17:33;10.30;;;9.20;;
6947;SDS011;3513;47.664;9.162;2022-07-23T15:19:59;9.87;;;8.97;;
6947;SDS011;3513;47.664;9.162;2022-07-23T15:22:25;10.83;;;8.60;;
6947;SDS011;3513;47.664;9.162;2022-07-23T15:24:50;10.00;;;9.00;;
6947;SDS011;3513;47.664;9.162;2022-07-23T15:27:16;10.63;;;9.23;;
6947;SDS011;3513;47.664;9.162;2022-07-23T15:29:43;9.63;;;8.63;;
6947;SDS011;3513;47.664;9.162;2022-07-23T15:32:09;13.60;;;9.87;;
6947;SDS011;3513;47.664;9.162;2022-07-23T15:34:37;14.60;;;8.30;;
6947;SDS011;3513;47.664;9.162;2022-07-23T15:37:03;10.33;;;9.43;;
6947;SDS011;3513;47.664;9.162;2022-07-23T15:39:30;11.63;;;8.83;;
6947;SDS011;3513;47.664;9.162;2022-07-23T15:41:57;9.87;;;8.83;;
6947;SDS011;3513;47.664;9.162;2022-07-23T15:44:24;13.30;;;9.80;;